Time;durP1;ratioP1;P1;durP2;ratioP2;P2;SDS_P1;SDS_P2;PMS_P1;PMS_P2;Temp;Humidity;BMP_temperature;BMP_pressure;BME280_temperature;BME280_humidity;BME280_pressure;Samples;Min_cycle;Max_cycle;Signal;HPM_P1;HPM_P2
2022/09/04 00:01:36;;;;;;;3.07;1.97;;;21.20;76.70;;;-142.21;100.00;112049.66;5052786;28;20186;-80
2022/09/04 00:04:19;;;;;;;3.87;2.03;;;21.20;76.70;;;-142.21;100.00;112049.66;5048102;28;20182;-80
2022/09/04 00:07:01;;;;;;;4.77;2.50;;;21.20;76.70;;;-142.21;100.00;112049.66;5047994;28;20617;-79
2022/09/04 00:09:46;;;;;;;2.50;2.00;;;21.20;76.90;;;-142.21;100.00;112049.66;5052969;28;20591;-80
2022/09/04 00:12:16;;;;;;;4.63;2.17;;;21.20;77.20;;;-142.21;100.00;112049.66;5052849;28;20203;-80
2022/09/04 00:14:51;;;;;;;3.47;1.93;;;21.10;76.70;;;-142.21;100.00;112049.66;5049845;28;20698;-80
2022/09/04 00:17:29;;;;;;;4.27;2.40;;;21.10;76.90;;;-142.21;100.00;112049.66;5035184;28;20200;-80
2022/09/04 00:20:06;;;;;;;3.23;2.10;;;21.10;77.20;;;-142.21;100.00;112049.66;5041611;28;20247;-80
2022/09/04 00:22:42;;;;;;;5.17;2.30;;;21.10;77.20;;;-142.21;100.00;112049.66;5047335;28;20309;-80
2022/09/04 00:25:21;;;;;;;2.30;2.10;;;21.10;76.90;;;-142.21;100.00;112049.66;5049419;28;20621;-79
2022/09/04 00:27:58;;;;;;;2.40;2.07;;;21.10;77.20;;;-142.21;100.00;112049.66;5053092;28;20198;-80
2022/09/04 00:30:26;;;;;;;5.47;2.07;;;21.00;77.00;;;-142.21;100.00;112049.66;5052676;28;20275;-80
2022/09/04 00:33:04;;;;;;;2.17;1.97;;;21.00;77.00;;;-142.21;100.00;112049.66;5052160;28;20202;-80
2022/09/04 00:35:37;;;;;;;3.33;2.20;;;21.00;77.10;;;-142.21;100.00;112049.66;5051440;28;20190;-80
2022/09/04 00:38:14;;;;;;;5.23;2.67;;;21.00;76.90;;;-142.21;100.00;112049.66;5052974;28;20575;-80
2022/09/04 00:40:52;;;;;;;4.77;2.33;;;21.00;76.70;;;-142.21;100.00;112049.66;5047801;28;20210;-80
2022/09/04 00:43:55;;;;;;;3.43;2.50;;;20.90;76.50;;;-142.21;100.00;112049.66;5045221;28;20202;-80
2022/09/04 00:47:09;;;;;;;5.53;2.20;;;21.00;77.00;;;-142.21;100.00;112049.66;5051890;28;20212;-81
2022/09/04 00:50:05;;;;;;;1.93;1.80;;;20.90;76.70;;;-142.21;100.00;112049.66;5048440;28;20304;-80
2022/09/04 00:52:56;;;;;;;3.13;2.20;;;20.90;76.70;;;-142.21;100.00;112049.66;5048799;28;20282;-80
2022/09/04 00:55:51;;;;;;;3.23;2.00;;;20.90;76.70;;;-142.21;100.00;112049.66;5051588;28;20197;-80
2022/09/04 00:58:39;;;;;;;3.10;2.17;;;20.90;76.70;;;-142.21;100.00;112049.66;5042732;28;20726;-81
2022/09/04 01:01:06;;;;;;;2.93;2.20;;;20.90;76.70;;;-142.21;100.00;112049.66;5052375;28;20197;-80
2022/09/04 01:04:18;;;;;;;4.20;2.03;;;20.80;76.40;;;-142.21;100.00;112049.66;5051034;28;20678;-80
2022/09/04 01:07:02;;;;;;;5.10;2.30;;;20.80;77.00;;;-142.21;100.00;112049.66;5052753;28;20190;-80
2022/09/04 01:10:03;;;;;;;4.33;2.20;;;20.80;76.90;;;-142.21;100.00;112049.66;5050207;28;20193;-81
2022/09/04 01:12:44;;;;;;;3.07;2.50;;;20.70;77.10;;;-142.21;100.00;112049.66;5045387;28;20185;-80
2022/09/04 01:15:20;;;;;;;4.67;2.37;;;20.70;77.00;;;-142.21;100.00;112049.66;5051706;28;20293;-80
2022/09/04 01:18:03;;;;;;;5.07;2.50;;;20.70;77.10;;;-142.21;100.00;112049.66;5052065;28;20189;-79
2022/09/04 01:20:53;;;;;;;3.90;2.03;;;20.60;77.10;;;-142.21;100.00;112049.66;5036940;28;20186;-80
2022/09/04 01:24:18;;;;;;;2.37;2.13;;;20.50;77.10;;;-142.21;100.00;112049.66;5050169;28;20279;-80
2022/09/04 01:26:59;;;;;;;4.60;2.70;;;20.50;77.50;;;-142.21;100.00;112049.66;4989921;28;20279;-79
2022/09/04 01:29:41;;;;;;;4.37;2.50;;;20.60;77.10;;;-142.21;100.00;112049.66;5051198;28;20557;-75
2022/09/04 01:32:18;;;;;;;2.83;2.17;;;20.40;77.20;;;-142.21;100.00;112049.66;5052262;28;20198;-76
2022/09/04 01:35:01;;;;;;;3.87;2.40;;;20.30;77.60;;;-142.21;100.00;112049.66;5045325;28;20197;-79
2022/09/04 01:37:52;;;;;;;5.23;3.63;;;20.30;77.60;;;-142.21;100.00;112049.66;5051227;28;20601;-79
2022/09/04 01:40:34;;;;;;;5.03;2.40;;;20.30;77.40;;;-142.21;100.00;112049.66;5049786;28;20240;-79
2022/09/04 01:43:09;;;;;;;4.70;2.07;;;20.40;77.20;;;-142.21;100.00;112049.66;5037764;28;20690;-81
2022/09/04 01:46:20;;;;;;;2.67;2.23;;;20.40;77.10;;;-142.21;100.00;112049.66;5051428;28;20490;-80
2022/09/04 01:48:59;;;;;;;11.43;2.70;;;20.40;77.20;;;-142.21;100.00;112049.66;5039380;28;20213;-80
2022/09/04 01:51:40;;;;;;;3.80;2.97;;;20.40;76.70;;;-142.21;100.00;112049.66;5040502;28;20209;-80
2022/09/04 01:54:22;;;;;;;3.17;2.20;;;20.30;76.70;;;-142.21;100.00;112049.66;5040124;28;20230;-80
2022/09/04 01:57:11;;;;;;;2.50;2.30;;;20.40;76.90;;;-142.21;100.00;112049.66;5048098;28;20230;-76
2022/09/04 01:59:57;;;;;;;3.10;2.37;;;20.40;76.90;;;-142.21;100.00;112049.66;5047755;28;20232;-78
2022/09/04 02:02:34;;;;;;;2.87;2.57;;;20.30;77.00;;;-142.21;100.00;112049.66;5050754;28;20268;-76
2022/09/04 02:05:12;;;;;;;3.47;2.50;;;20.30;77.00;;;-142.21;100.00;112049.66;5051903;28;20247;-80
2022/09/04 02:07:49;;;;;;;6.17;2.40;;;20.30;76.90;;;-142.21;100.00;112049.66;5051536;28;20217;-77
2022/09/04 02:10:35;;;;;;;2.97;2.53;;;20.30;77.00;;;-142.21;100.00;112049.66;5045973;28;20606;-77
2022/09/04 02:13:16;;;;;;;2.50;2.30;;;20.20;77.00;;;-142.21;100.00;112049.66;5051753;28;20221;-76
2022/09/04 02:16:03;;;;;;;2.73;2.20;;;20.20;77.00;;;-142.21;100.00;112049.66;5051816;28;20182;-76
2022/09/04 02:18:44;;;;;;;2.20;2.10;;;20.20;77.10;;;-142.21;100.00;112049.66;5050985;28;20297;-76
2022/09/04 02:21:24;;;;;;;3.50;2.10;;;20.20;77.20;;;-142.21;100.00;112049.66;5031305;28;20639;-79
2022/09/04 02:24:08;;;;;;;2.73;2.33;;;20.10;77.20;;;-142.21;100.00;112049.66;5043347;28;20690;-78
2022/09/04 02:26:45;;;;;;;2.67;2.00;;;20.10;77.20;;;-142.21;100.00;112049.66;5051261;28;20190;-77
2022/09/04 02:29:25;;;;;;;4.33;2.77;;;20.10;77.20;;;-142.21;100.00;112049.66;5047033;28;20220;-76
2022/09/04 02:32:06;;;;;;;3.80;2.37;;;20.00;77.20;;;-142.21;100.00;112049.66;5032280;28;20241;-76
2022/09/04 02:34:46;;;;;;;3.87;2.30;;;20.00;77.20;;;-142.21;100.00;112049.66;5044921;28;20444;-80
2022/09/04 02:37:24;;;;;;;5.33;2.20;;;20.00;77.20;;;-142.21;100.00;112049.66;5044263;28;20240;-81
2022/09/04 02:40:05;;;;;;;2.43;1.97;;;20.00;77.10;;;-142.21;100.00;112049.66;5031912;28;20602;-82
2022/09/04 02:42:48;;;;;;;2.87;2.23;;;20.00;77.10;;;-142.21;100.00;112049.66;5031218;28;20219;-80
2022/09/04 02:45:29;;;;;;;2.20;2.00;;;20.00;77.10;;;-142.21;100.00;112049.66;5051292;28;20198;-80
2022/09/04 02:48:12;;;;;;;6.10;2.27;;;20.00;76.90;;;-142.21;100.00;112049.66;5051245;28;20205;-80
2022/09/04 02:51:04;;;;;;;4.53;2.60;;;20.00;77.00;;;-142.21;100.00;112049.66;5050271;28;20209;-80
2022/09/04 02:53:47;;;;;;;2.93;2.10;;;20.00;77.10;;;-142.21;100.00;112049.66;5042564;28;20282;-80
2022/09/04 02:56:30;;;;;;;2.20;2.00;;;20.00;77.00;;;-142.21;100.00;112049.66;5045038;28;20535;-80
2022/09/04 02:59:24;;;;;;;2.47;2.10;;;20.00;76.70;;;-142.21;100.00;112049.66;5052704;28;20243;-80
2022/09/04 03:01:58;;;;;;;3.83;2.60;;;20.00;76.90;;;-142.21;100.00;112049.66;5054554;28;20209;-80
2022/09/04 03:04:37;;;;;;;4.73;2.20;;;19.90;76.60;;;-142.21;100.00;112049.66;5039289;28;20279;-80
2022/09/04 03:07:17;;;;;;;3.07;2.50;;;19.90;76.80;;;-142.21;100.00;112049.66;5035221;28;20248;-81
2022/09/04 03:09:54;;;;;;;5.23;2.23;;;19.90;76.80;;;-142.21;100.00;112049.66;5034306;28;20252;-81
2022/09/04 03:12:34;;;;;;;3.17;2.23;;;19.90;76.70;;;-142.21;100.00;112049.66;5040208;28;20194;-76
2022/09/04 03:15:14;;;;;;;2.40;2.20;;;19.90;76.90;;;-142.21;100.00;112049.66;5052001;28;20640;-79
2022/09/04 03:17:52;;;;;;;3.53;2.37;;;19.90;77.10;;;-142.21;100.00;112049.66;5034689;28;20256;-81
2022/09/04 03:20:27;;;;;;;3.37;1.90;;;19.90;77.20;;;-142.21;100.00;112049.66;5034399;28;20195;-77
2022/09/04 03:23:04;;;;;;;5.03;2.20;;;19.90;76.70;;;-142.21;100.00;112049.66;5035096;28;20334;-77
2022/09/04 03:26:18;;;;;;;2.37;2.17;;;19.90;76.80;;;-142.21;100.00;112049.66;5041812;28;20230;-80
2022/09/04 03:29:01;;;;;;;5.20;2.30;;;19.90;77.10;;;-142.21;100.00;112049.66;5031622;28;20233;-79
2022/09/04 03:31:39;;;;;;;3.20;2.00;;;19.80;76.70;;;-142.21;100.00;112049.66;5042652;28;20212;-76
2022/09/04 03:34:41;;;;;;;4.13;2.13;;;19.80;76.70;;;-142.21;100.00;112049.66;5042619;28;20202;-80
2022/09/04 03:37:48;;;;;;;3.90;2.10;;;19.80;76.70;;;-142.21;100.00;112049.66;5035037;28;20502;-80
2022/09/04 03:40:36;;;;;;;2.40;2.20;;;19.80;76.90;;;-142.21;100.00;112049.66;5034190;28;20210;-78
2022/09/04 03:43:32;;;;;;;2.63;1.93;;;19.80;76.90;;;-142.21;100.00;112049.66;5050088;28;20243;-77
2022/09/04 03:46:15;;;;;;;2.50;2.27;;;19.80;77.10;;;-142.21;100.00;112049.66;5044201;28;20281;-76
2022/09/04 03:49:00;;;;;;;2.70;2.27;;;19.70;77.00;;;-142.21;100.00;112049.66;5054602;28;20474;-77
2022/09/04 03:51:43;;;;;;;2.90;2.57;;;19.70;77.20;;;-142.21;100.00;112049.66;5054236;28;20255;-80
2022/09/04 03:54:31;;;;;;;2.70;2.40;;;19.70;77.40;;;-142.21;100.00;112049.66;5050615;28;20273;-79
2022/09/04 03:57:37;;;;;;;2.63;2.23;;;19.70;77.40;;;-142.21;100.00;112049.66;5036343;28;20206;-75
2022/09/04 04:00:11;;;;;;;3.17;2.00;;;19.60;77.30;;;-142.21;100.00;112049.66;5036105;28;20202;-76
2022/09/04 04:03:02;;;;;;;5.27;2.40;;;19.60;77.30;;;-142.21;100.00;112049.66;5049713;28;20220;-80
2022/09/04 04:05:51;;;;;;;3.20;2.20;;;19.50;77.20;;;-142.21;100.00;112049.66;5045828;28;20252;-77
2022/09/04 04:09:10;;;;;;;4.10;2.27;;;19.50;77.20;;;-142.21;100.00;112049.66;5053981;28;20273;-76
2022/09/04 04:12:19;;;;;;;2.37;2.17;;;19.50;77.50;;;-142.21;100.00;112049.66;4964350;28;20208;-77
2022/09/04 04:15:13;;;;;;;2.73;1.90;;;19.40;77.20;;;-142.21;100.00;112049.66;4957516;28;20284;-77
2022/09/04 04:18:26;;;;;;;7.10;2.70;;;19.40;77.20;;;-142.21;100.00;112049.66;5052530;28;20240;-77
2022/09/04 04:21:07;;;;;;;2.33;2.10;;;19.30;77.20;;;-142.21;100.00;112049.66;5046163;28;20680;-79
2022/09/04 04:24:21;;;;;;;3.60;2.10;;;19.40;77.10;;;-142.21;100.00;112049.66;5052602;28;20271;-81
2022/09/04 04:27:09;;;;;;;3.37;2.10;;;19.30;77.20;;;-142.21;100.00;112049.66;5039756;28;20449;-79
2022/09/04 04:30:05;;;;;;;4.10;2.37;;;19.20;77.40;;;-142.21;100.00;112049.66;5050991;28;20717;-82
2022/09/04 04:32:50;;;;;;;4.33;2.17;;;19.10;77.70;;;-142.21;100.00;112049.66;5051306;28;20457;-80
2022/09/04 04:35:32;;;;;;;2.33;2.03;;;19.10;77.90;;;-142.21;100.00;112049.66;5035199;28;20202;-80
2022/09/04 04:38:16;;;;;;;2.30;2.10;;;19.00;77.90;;;-142.21;100.00;112049.66;5052820;28;20614;-81
2022/09/04 04:41:20;;;;;;;2.57;2.37;;;19.00;78.90;;;-142.21;100.00;112049.66;5052794;28;20789;-80
2022/09/04 04:44:11;;;;;;;3.83;2.17;;;19.00;78.10;;;-142.21;100.00;112049.66;5051111;28;20824;-80
2022/09/04 04:47:06;;;;;;;4.27;2.20;;;19.00;77.80;;;-142.21;100.00;112049.66;5038512;28;20198;-80
2022/09/04 04:50:00;;;;;;;6.50;2.20;;;19.10;77.70;;;-142.21;100.00;112049.66;5039647;28;20224;-80
2022/09/04 04:52:48;;;;;;;3.03;2.20;;;19.10;77.10;;;-142.21;100.00;112049.66;5044561;28;20476;-80
2022/09/04 04:55:37;;;;;;;5.03;2.50;;;19.20;77.10;;;-142.21;100.00;112049.66;5067404;28;20448;-80
2022/09/04 04:58:53;;;;;;;2.13;1.93;;;19.20;77.10;;;-142.21;100.00;112049.66;5052140;28;20238;-81
2022/09/04 05:01:42;;;;;;;3.57;2.50;;;19.20;77.30;;;-142.21;100.00;112049.66;4959538;28;20235;-81
2022/09/04 05:04:28;;;;;;;3.47;2.57;;;19.20;77.50;;;-142.21;100.00;112049.66;5046594;28;20482;-80
2022/09/04 05:07:06;;;;;;;3.03;2.10;;;19.10;77.40;;;-142.21;100.00;112049.66;5034280;28;20433;-81
2022/09/04 05:09:46;;;;;;;3.57;2.13;;;19.20;77.20;;;-142.21;100.00;112049.66;5050712;28;20479;-81
2022/09/04 05:12:28;;;;;;;2.77;2.30;;;19.20;77.10;;;-142.21;100.00;112049.66;5052033;28;20276;-81
2022/09/04 05:15:08;;;;;;;4.37;2.20;;;19.20;77.30;;;-142.21;100.00;112049.66;5039523;28;20437;-80
2022/09/04 05:17:50;;;;;;;2.97;2.20;;;19.10;77.60;;;-142.21;100.00;112049.66;5034178;28;20281;-80
2022/09/04 05:20:37;;;;;;;6.57;2.37;;;19.10;78.20;;;-142.21;100.00;112049.66;5052609;28;20448;-80
2022/09/04 05:23:31;;;;;;;3.60;2.27;;;19.00;78.30;;;-142.21;100.00;112049.66;5051626;28;20980;-80
2022/09/04 05:26:11;;;;;;;3.30;2.33;;;19.00;78.20;;;-142.21;100.00;112049.66;5050801;28;20464;-80
2022/09/04 05:28:54;;;;;;;4.50;2.00;;;19.10;78.20;;;-142.21;100.00;112049.66;5051337;28;20219;-80
2022/09/04 05:31:37;;;;;;;4.13;2.27;;;19.10;78.30;;;-142.21;100.00;112049.66;5051308;28;20248;-79
2022/09/04 05:34:20;;;;;;;10.13;2.63;;;19.10;78.10;;;-142.21;100.00;112049.66;5051835;28;20440;-79
2022/09/04 05:37:02;;;;;;;2.20;2.00;;;19.20;78.00;;;-142.21;100.00;112049.66;5046170;28;20449;-79
2022/09/04 05:39:44;;;;;;;3.03;2.27;;;19.20;78.10;;;-142.21;100.00;112049.66;5051978;28;20952;-80
2022/09/04 05:42:44;;;;;;;6.00;2.60;;;19.20;78.40;;;-142.21;100.00;112049.66;5051994;28;20436;-79
2022/09/04 05:45:24;;;;;;;4.90;2.67;;;19.20;78.70;;;-142.21;100.00;112049.66;5048709;28;20198;-79
2022/09/04 05:48:13;;;;;;;3.00;2.37;;;19.30;78.50;;;-142.21;100.00;112049.66;5051218;28;20486;-79
2022/09/04 05:51:03;;;;;;;4.80;2.40;;;19.40;78.50;;;-142.21;100.00;112049.66;5050986;28;20936;-81
2022/09/04 05:54:11;;;;;;;3.20;2.47;;;19.50;79.10;;;-142.21;100.00;112049.66;5051435;28;20190;-79
2022/09/04 05:57:01;;;;;;;2.97;2.70;;;19.50;79.40;;;-142.21;100.00;112049.66;5042790;28;20790;-80
2022/09/04 06:00:02;;;;;;;3.17;2.77;;;19.50;79.40;;;-142.21;100.00;112049.66;5051012;28;20781;-79
2022/09/04 06:03:20;;;;;;;2.83;2.60;;;19.60;79.60;;;-142.21;100.00;112049.66;5046307;28;20455;-80
2022/09/04 06:06:14;;;;;;;2.80;2.50;;;19.60;79.90;;;-142.21;100.00;112049.66;5038454;28;20378;-80
2022/09/04 06:09:28;;;;;;;4.17;2.40;;;19.70;80.40;;;-142.21;100.00;112049.66;5044155;28;20550;-80
2022/09/04 06:12:21;;;;;;;2.80;2.53;;;19.80;80.40;;;-142.21;100.00;112049.66;5046881;28;20205;-80
2022/09/04 06:15:32;;;;;;;3.40;2.60;;;19.90;80.10;;;-142.21;100.00;112049.66;5050209;28;20202;-80
2022/09/04 06:18:39;;;;;;;3.73;2.40;;;19.90;80.40;;;-142.21;100.00;112049.66;5051069;28;20194;-81
2022/09/04 06:21:53;;;;;;;4.63;3.03;;;20.00;80.60;;;-142.21;100.00;112049.66;5051193;28;20209;-79
2022/09/04 06:24:46;;;;;;;4.87;3.03;;;20.10;80.70;;;-142.21;100.00;112049.66;5043058;28;20256;-79
2022/09/04 06:27:42;;;;;;;3.90;2.83;;;20.20;81.50;;;-142.21;100.00;112049.66;5046441;28;20559;-81
2022/09/04 06:30:12;;;;;;;4.83;3.30;;;20.20;81.10;;;-142.21;100.00;112049.66;5050215;28;20206;-81
2022/09/04 06:33:20;;;;;;;3.47;3.17;;;20.30;81.40;;;-142.21;100.00;112049.66;5044868;28;20257;-81
2022/09/04 06:36:24;;;;;;;3.93;3.13;;;20.40;81.60;;;-142.21;100.00;112049.66;5047298;28;20234;-81
2022/09/04 06:39:30;;;;;;;3.33;2.90;;;20.50;81.10;;;-142.21;100.00;112049.66;5052335;28;20537;-80
2022/09/04 06:42:20;;;;;;;4.03;3.47;;;20.60;81.20;;;-142.21;100.00;112049.66;5052291;28;20198;-80
2022/09/04 06:45:13;;;;;;;5.83;3.67;;;20.70;80.70;;;-142.21;100.00;112049.66;5046353;28;20218;-81
2022/09/04 06:48:18;;;;;;;3.40;3.10;;;20.80;80.70;;;-142.21;100.00;112049.66;5053348;28;20194;-77
2022/09/04 06:51:00;;;;;;;3.73;3.33;;;20.90;81.10;;;-142.21;100.00;112049.66;5040733;28;20725;-79
2022/09/04 06:53:42;;;;;;;3.70;3.33;;;20.90;80.10;;;-142.21;100.00;112049.66;5054376;28;20194;-78
2022/09/04 06:56:41;;;;;;;3.90;3.60;;;21.10;79.90;;;-142.21;100.00;112049.66;5054763;28;20186;-77
2022/09/04 06:59:33;;;;;;;3.83;3.40;;;21.10;80.30;;;-142.21;100.00;112049.66;5054825;28;20283;-78
2022/09/04 07:02:20;;;;;;;3.67;3.30;;;21.20;79.40;;;-142.21;100.00;112049.66;5054315;28;20214;-76
2022/09/04 07:05:04;;;;;;;4.70;3.50;;;21.30;79.20;;;-142.21;100.00;112049.66;5053913;28;20216;-77
2022/09/04 07:07:46;;;;;;;4.00;3.40;;;21.50;79.10;;;-142.21;100.00;112049.66;5054449;28;20205;-77
2022/09/04 07:10:20;;;;;;;3.90;3.00;;;21.60;79.10;;;-142.21;100.00;112049.66;5052537;28;20531;-78
2022/09/04 07:13:36;;;;;;;4.40;3.60;;;21.70;78.70;;;-142.21;100.00;112049.66;5053067;28;20186;-79
2022/09/04 07:16:24;;;;;;;3.63;3.33;;;21.80;78.60;;;-142.21;100.00;112049.66;5069399;28;20622;-77
2022/09/04 07:19:24;;;;;;;3.40;3.10;;;21.90;78.30;;;-142.21;100.00;112049.66;5053966;28;20253;-77
2022/09/04 07:22:12;;;;;;;3.67;2.90;;;21.90;78.60;;;-142.21;100.00;112049.66;5053679;28;20210;-79
2022/09/04 07:25:09;;;;;;;3.67;3.33;;;22.10;78.30;;;-142.21;100.00;112049.66;5054400;28;20229;-76
2022/09/04 07:28:04;;;;;;;3.13;2.83;;;22.10;77.70;;;-142.21;100.00;112049.66;5054007;28;20202;-78
2022/09/04 07:30:44;;;;;;;4.27;3.00;;;22.20;77.40;;;-142.21;100.00;112049.66;5036951;28;20191;-79
2022/09/04 07:33:24;;;;;;;3.43;2.97;;;22.20;77.50;;;-142.21;100.00;112049.66;5054208;28;20224;-80
2022/09/04 07:36:06;;;;;;;3.67;2.90;;;22.40;77.60;;;-142.21;100.00;112049.66;5053171;28;20193;-82
2022/09/04 07:38:47;;;;;;;3.47;2.87;;;22.50;76.90;;;-142.21;100.00;112049.66;5041492;28;20194;-78
2022/09/04 07:41:24;;;;;;;3.30;3.00;;;22.50;76.30;;;-142.21;99.76;112049.66;5035172;28;20194;-78
2022/09/04 07:44:03;;;;;;;3.53;3.00;;;22.50;76.20;;;-142.21;100.00;112049.66;5050530;28;20693;-78
2022/09/04 07:46:49;;;;;;;4.03;3.33;;;22.60;76.40;;;-142.21;98.42;112049.66;5046490;28;20329;-80
2022/09/04 07:49:29;;;;;;;3.33;3.03;;;22.70;75.50;;;-142.21;97.76;112049.66;5053585;28;20202;-78
2022/09/04 07:52:09;;;;;;;3.30;2.90;;;22.80;75.10;;;-142.21;98.39;112049.66;5052817;28;20343;-80
2022/09/04 07:55:09;;;;;;;3.97;2.87;;;22.80;75.20;;;-142.21;98.34;112049.66;5053022;28;20216;-79
2022/09/04 07:58:27;;;;;;;3.60;2.93;;;22.90;75.10;;;-142.21;97.91;112049.66;5053701;28;20194;-79
2022/09/04 08:01:22;;;;;;;2.70;2.50;;;22.90;74.90;;;-142.21;97.73;112049.66;5051842;28;20255;-80
2022/09/04 08:04:38;;;;;;;3.27;2.73;;;23.00;74.70;;;-142.21;98.18;112049.66;5052405;28;20702;-79
2022/09/04 08:07:19;;;;;;;3.27;2.77;;;23.20;74.90;;;-142.21;95.97;112049.66;5040384;28;20206;-79
2022/09/04 08:10:19;;;;;;;2.80;2.60;;;23.30;73.90;;;-142.21;94.82;112049.66;5051828;28;20204;-80
2022/09/04 08:13:08;;;;;;;2.73;2.53;;;23.50;73.60;;;-142.21;94.85;112049.66;5051849;28;20236;-81
2022/09/04 08:15:44;;;;;;;2.60;2.40;;;23.50;73.10;;;-142.21;94.65;112049.66;5052485;28;20668;-79
2022/09/04 08:19:00;;;;;;;3.20;2.20;;;23.60;73.00;;;-142.21;94.71;112049.66;5052473;28;20209;-80
2022/09/04 08:21:33;;;;;;;2.43;2.23;;;23.70;72.90;;;-142.21;92.59;112049.66;4976024;28;20206;-79
2022/09/04 08:24:46;;;;;;;3.87;2.83;;;23.90;72.20;;;-142.21;92.05;112049.66;4987821;28;20285;-77
2022/09/04 08:27:34;;;;;;;2.77;2.53;;;24.10;71.60;;;-142.21;90.92;112049.66;5013440;28;20201;-78
2022/09/04 08:30:08;;;;;;;2.27;2.07;;;24.10;70.60;;;-142.21;91.75;112049.66;5051718;28;20270;-80
2022/09/04 08:33:39;;;;;;;2.93;2.43;;;24.20;71.30;;;-142.21;90.75;112049.66;5053570;28;20209;-79
2022/09/04 08:36:22;;;;;;;2.70;2.50;;;24.40;70.20;;;-142.21;91.10;112049.66;5012668;28;20262;-78
2022/09/04 08:39:06;;;;;;;2.60;2.40;;;24.50;70.60;;;-142.21;90.00;112049.66;5052409;28;20193;-75
2022/09/04 08:42:24;;;;;;;2.40;2.20;;;24.60;69.80;;;-142.21;90.01;112049.66;5054395;28;20197;-77
2022/09/04 08:45:57;;;;;;;2.80;1.73;;;24.80;69.50;;;-142.21;87.36;112049.66;5007502;28;20290;-79
2022/09/04 08:49:10;;;;;;;3.03;2.23;;;24.90;68.20;;;-142.21;87.94;112049.66;5044419;28;20220;-78
2022/09/04 08:52:36;;;;;;;2.53;2.33;;;25.00;68.80;;;-142.21;86.41;112049.66;5043485;28;20197;-77
2022/09/04 08:55:44;;;;;;;2.17;1.97;;;25.20;67.20;;;-142.21;85.33;112049.66;5029357;28;20562;-77
2022/09/04 08:59:10;;;;;;;3.63;2.23;;;25.30;67.00;;;-142.21;81.84;112049.66;5051598;28;20233;-78
2022/09/04 09:02:24;;;;;;;2.40;2.20;;;25.50;65.50;;;-142.21;85.42;112049.66;5030471;28;20198;-79
2022/09/04 09:05:32;;;;;;;1.83;1.73;;;25.40;67.10;;;-142.21;85.63;112049.66;5039973;28;20217;-79
2022/09/04 09:08:39;;;;;;;3.77;1.90;;;25.70;67.00;;;-142.21;83.10;112049.66;5047674;28;20206;-80
2022/09/04 09:11:54;;;;;;;2.10;1.90;;;25.90;65.10;;;-142.21;79.66;112049.66;5051214;28;20205;-80
2022/09/04 09:15:12;;;;;;;1.60;1.50;;;26.10;63.60;;;-142.21;79.83;112049.66;5037811;28;20221;-81
2022/09/04 09:18:01;;;;;;;2.50;2.00;;;26.20;63.00;;;-142.21;77.85;112049.66;5038876;28;20285;-80
2022/09/04 09:20:35;;;;;;;2.67;1.90;;;26.30;62.70;;;-142.21;80.91;112049.66;5051979;28;20277;-77
2022/09/04 09:23:40;;;;;;;2.83;1.90;;;26.50;63.90;;;-142.21;77.35;112049.66;5050551;28;20208;-77
2022/09/04 09:26:27;;;;;;;2.37;1.80;;;26.60;61.50;;;-142.21;77.23;112049.66;5042874;28;20197;-77
2022/09/04 09:29:52;;;;;;;2.10;1.90;;;26.70;61.20;;;-142.21;73.90;112049.66;5053770;28;20222;-80
2022/09/04 09:33:35;;;;;;;2.40;2.20;;;26.80;60.30;;;-142.21;73.01;112049.66;5051780;28;20201;-76
2022/09/04 09:36:47;;;;;;;2.07;1.87;;;26.80;59.70;;;-142.21;75.18;112049.66;5035164;28;20229;-78
2022/09/04 09:40:09;;;;;;;2.40;1.90;;;26.80;60.40;;;-142.21;73.46;112049.66;5032908;28;20194;-77
2022/09/04 09:43:40;;;;;;;2.47;1.87;;;27.10;59.80;;;-142.21;71.95;112049.66;4984838;28;20207;-77
2022/09/04 09:47:00;;;;;;;1.93;1.70;;;27.30;59.40;;;-142.21;69.66;112049.66;5051021;28;20292;-78
2022/09/04 09:50:40;;;;;;;2.20;1.90;;;27.40;58.40;;;-142.21;71.02;112049.66;5047038;28;20206;-78
2022/09/04 09:53:49;;;;;;;2.17;1.47;;;27.60;58.80;;;-142.21;68.71;112049.66;4973003;28;20200;-79
2022/09/04 09:57:26;;;;;;;1.70;1.60;;;27.70;57.70;;;-142.21;64.62;112049.66;4981197;28;20232;-78
2022/09/04 10:00:12;;;;;;;2.03;1.93;;;27.80;56.30;;;-142.21;67.44;112049.66;4997075;28;20887;-78
2022/09/04 10:03:44;;;;;;;1.93;1.63;;;27.90;57.30;;;-142.21;65.14;112049.66;5009466;28;20215;-78
2022/09/04 10:06:52;;;;;;;3.50;1.83;;;28.10;56.40;;;-142.21;65.02;112049.66;5050046;28;20241;-76
2022/09/04 10:10:09;;;;;;;1.83;1.73;;;28.20;56.00;;;-142.21;64.65;112049.66;5055147;28;20252;-78
2022/09/04 10:13:20;;;;;;;3.83;2.17;;;28.30;56.50;;;-142.21;62.98;112049.66;5042289;28;20192;-72
2022/09/04 10:16:27;;;;;;;2.00;1.80;;;28.20;55.10;;;-142.21;63.27;112049.66;5060267;28;20237;-75
2022/09/04 10:19:28;;;;;;;2.07;1.80;;;28.20;55.60;;;-142.21;65.07;112049.66;5052514;28;20206;-74
2022/09/04 10:22:47;;;;;;;1.90;1.67;;;28.30;55.80;;;-142.21;63.62;112049.66;5054886;28;20200;-75
2022/09/04 10:26:18;;;;;;;1.80;1.70;;;28.50;55.20;;;-142.21;55.92;112049.66;5049709;28;20227;-75
2022/09/04 10:29:27;;;;;;;4.80;1.93;;;28.60;53.50;;;-142.21;61.55;112049.66;5049754;28;20208;-76
2022/09/04 10:32:37;;;;;;;2.47;1.87;;;28.70;54.60;;;-142.21;62.67;112049.66;5047953;28;20244;-74
2022/09/04 10:35:30;;;;;;;2.43;2.03;;;28.80;54.70;;;-142.21;62.13;112049.66;5053252;28;20253;-75
2022/09/04 10:40:34;;;;;;;2.77;1.40;;;29.00;54.20;;;-142.21;59.18;112049.66;5051439;28;20191;-75
2022/09/04 10:42:07;;;;;;;1.87;1.40;;;29.30;53.50;;;-142.21;55.72;112049.66;5055484;28;20210;-76
2022/09/04 10:45:15;;;;;;;1.47;1.37;;;29.60;52.60;;;-142.21;44.75;112049.66;5051794;28;20242;-75
2022/09/04 10:48:36;;;;;;;2.27;1.33;;;29.70;49.10;;;-142.21;44.99;112049.66;5055467;28;20212;-75
2022/09/04 10:52:03;;;;;;;3.40;1.67;;;29.50;48.20;;;-142.21;45.53;112049.66;5054854;28;20199;-74
2022/09/04 10:55:15;;;;;;;1.40;1.27;;;29.20;49.20;;;-142.21;46.25;112049.66;5054935;28;20196;-74
2022/09/04 10:58:23;;;;;;;2.50;1.43;;;29.30;49.50;;;-142.21;45.25;112049.66;5054237;28;20197;-75
2022/09/04 11:01:19;;;;;;;1.47;1.33;;;29.20;48.60;;;-142.21;47.73;112049.66;5050044;28;20191;-74
2022/09/04 11:04:26;;;;;;;1.37;1.27;;;29.20;49.60;;;-142.21;43.39;112049.66;5054678;28;20196;-75
2022/09/04 11:07:50;;;;;;;2.40;1.70;;;29.30;48.60;;;-142.21;42.69;112049.66;5056617;28;20234;-79
2022/09/04 11:10:58;;;;;;;1.63;1.53;;;29.10;47.00;;;-142.21;42.32;112049.66;5038600;28;20674;-79
2022/09/04 11:14:10;;;;;;;2.57;1.73;;;28.90;46.90;;;-142.21;46.08;112049.66;5027192;28;20210;-78
2022/09/04 11:17:31;;;;;;;1.60;1.50;;;28.90;49.00;;;-142.21;45.89;112049.66;5035015;28;20246;-79
2022/09/04 11:20:57;;;;;;;1.60;1.50;;;29.00;49.30;;;-142.21;42.44;112049.66;5051721;28;20219;-79
2022/09/04 11:24:26;;;;;;;2.53;1.47;;;29.10;46.50;;;-142.21;42.68;112049.66;4994408;28;20210;-78
2022/09/04 11:27:57;;;;;;;2.93;1.50;;;29.20;46.80;;;-142.21;45.37;112049.66;5041171;28;20424;-80
2022/09/04 11:30:38;;;;;;;1.60;1.50;;;29.30;49.60;;;-142.21;46.73;112049.66;5037677;28;20207;-79
2022/09/04 11:34:04;;;;;;;1.50;1.40;;;29.50;49.30;;;-142.21;41.76;112049.66;5054152;28;20227;-78
2022/09/04 11:37:15;;;;;;;2.43;1.50;;;29.50;46.70;;;-142.21;41.69;112049.66;5049178;28;20311;-79
2022/09/04 11:40:37;;;;;;;1.40;1.30;;;29.50;46.60;;;-142.21;43.12;112049.66;5037553;28;20209;-79
2022/09/04 11:43:38;;;;;;;1.33;1.23;;;29.50;46.70;;;-142.21;44.06;112049.66;5054495;28;20200;-80
2022/09/04 11:46:34;;;;;;;1.40;1.30;;;29.70;47.60;;;-142.21;46.27;112049.66;5054157;28;20245;-79